createdAt,value
2018-03-08T00:00:18.566Z,55.45
2018-03-08T00:02:45.688Z,55.44
2018-03-08T00:05:12.784Z,55.44
2018-03-08T00:07:41.013Z,55.43
2018-03-08T00:10:08.493Z,55.44
2018-03-08T00:12:35.652Z,55.44
2018-03-08T00:15:02.754Z,55.43
2018-03-08T00:17:30.377Z,55.42
2018-03-08T00:19:59.396Z,55.42
2018-03-08T00:22:26.521Z,55.42
2018-03-08T00:24:53.621Z,55.42
2018-03-08T00:27:20.737Z,55.40
2018-03-08T00:29:47.827Z,55.40
2018-03-08T00:32:15.711Z,55.40
2018-03-08T00:34:43.572Z,55.38
2018-03-08T00:37:11.456Z,55.39
2018-03-08T00:39:38.616Z,55.38
2018-03-08T00:42:05.741Z,55.39
2018-03-08T00:44:32.841Z,55.38
2018-03-08T00:47:00.739Z,55.37
2018-03-08T00:49:28.596Z,55.38
2018-03-08T00:51:55.707Z,55.36
2018-03-08T00:54:23.562Z,55.36
2018-03-08T00:56:51.512Z,55.35
2018-03-08T00:59:18.609Z,55.36
2018-03-08T01:01:45.709Z,55.35
2018-03-08T01:04:12.799Z,55.35
2018-03-08T01:06:39.893Z,55.36
2018-03-08T01:09:06.987Z,55.34
2018-03-08T01:11:34.095Z,55.34
2018-03-08T01:14:01.956Z,55.34
2018-03-08T01:16:29.053Z,55.35
2018-03-08T01:18:56.171Z,55.35
2018-03-08T01:21:23.268Z,55.34
2018-03-08T01:23:51.157Z,55.36
2018-03-08T01:26:18.252Z,55.34
2018-03-08T01:28:45.376Z,55.33
2018-03-08T01:31:12.468Z,55.34
2018-03-08T01:33:39.598Z,55.34
2018-03-08T01:36:06.692Z,55.35
2018-03-08T01:38:33.808Z,55.36
2018-03-08T01:41:01.664Z,55.35
2018-03-08T01:43:29.552Z,55.34
2018-03-08T01:45:56.649Z,55.36
2018-03-08T01:48:23.781Z,55.34
2018-03-08T01:50:51.635Z,55.33
2018-03-08T01:53:18.727Z,55.35
2018-03-08T01:55:46.583Z,55.34
2018-03-08T01:58:13.681Z,55.33
2018-03-08T02:00:40.777Z,55.33
2018-03-08T02:03:07.876Z,55.32
2018-03-08T02:05:34.990Z,55.32
2018-03-08T02:08:02.093Z,55.32
2018-03-08T02:10:29.209Z,55.34
2018-03-08T02:12:56.300Z,55.31
2018-03-08T02:15:23.393Z,55.32
2018-03-08T02:17:51.258Z,55.30
2018-03-08T02:20:18.356Z,55.33
2018-03-08T02:22:45.444Z,55.30
2018-03-08T02:25:12.540Z,55.31
2018-03-08T02:27:39.627Z,55.25
2018-03-08T02:30:06.730Z,55.29
2018-03-08T02:32:33.824Z,55.30
2018-03-08T02:35:00.912Z,55.29
2018-03-08T02:37:28.007Z,55.28
2018-03-08T02:39:55.103Z,55.29
2018-03-08T02:42:22.201Z,55.29
2018-03-08T02:44:49.329Z,55.30
2018-03-08T02:47:16.420Z,55.29
2018-03-08T02:49:43.520Z,55.29
2018-03-08T02:52:10.616Z,55.28
2018-03-08T02:54:37.717Z,55.29
2018-03-08T02:57:04.816Z,55.28
2018-03-08T02:59:31.904Z,55.30
2018-03-08T03:01:59.767Z,55.28
2018-03-08T03:04:26.868Z,55.29
2018-03-08T03:06:53.962Z,55.28
2018-03-08T03:09:21.159Z,55.29
2018-03-08T03:11:48.290Z,55.29
2018-03-08T03:14:15.371Z,55.27
2018-03-08T03:16:42.536Z,55.28
2018-03-08T03:19:09.639Z,55.27
2018-03-08T03:21:36.732Z,55.28
2018-03-08T03:24:03.821Z,55.27
2018-03-08T03:26:30.924Z,55.27
2018-03-08T03:28:58.016Z,55.27
2018-03-08T03:31:25.134Z,55.27
2018-03-08T03:33:52.997Z,55.26
2018-03-08T03:36:20.095Z,55.27
2018-03-08T03:38:47.188Z,55.25
2018-03-08T03:41:14.279Z,55.28
2018-03-08T03:43:41.352Z,55.26
2018-03-08T03:46:09.194Z,55.24
2018-03-08T03:48:36.271Z,55.25
2018-03-08T03:51:03.349Z,55.25
2018-03-08T03:53:31.203Z,55.22
2018-03-08T03:55:59.252Z,55.25
2018-03-08T03:58:26.453Z,55.24
2018-03-08T04:00:53.550Z,55.22
2018-03-08T04:03:20.639Z,55.22
2018-03-08T04:05:47.737Z,55.21
2018-03-08T04:08:14.817Z,55.24
2018-03-08T04:10:42.666Z,55.24
2018-03-08T04:13:09.759Z,55.21
2018-03-08T04:15:37.615Z,55.25
2018-03-08T04:18:04.708Z,55.21
2018-03-08T04:20:31.805Z,55.21
2018-03-08T04:22:58.896Z,55.21
2018-03-08T04:25:25.991Z,55.24
2018-03-08T04:27:53.123Z,55.23
2018-03-08T04:30:20.213Z,55.23
2018-03-08T04:32:47.285Z,55.22
2018-03-08T04:35:14.360Z,55.20
2018-03-08T04:37:41.456Z,55.21
2018-03-08T04:40:08.539Z,55.23
2018-03-08T04:42:36.408Z,55.21
2018-03-08T04:45:03.496Z,55.21
2018-03-08T04:47:30.581Z,55.20
2018-03-08T04:49:57.676Z,55.18
2018-03-08T04:52:24.759Z,55.19
2018-03-08T04:54:51.839Z,55.18
2018-03-08T04:57:18.949Z,55.19
2018-03-08T04:59:46.043Z,55.19
2018-03-08T05:02:13.911Z,55.19
2018-03-08T05:04:41.004Z,55.19
2018-03-08T05:07:08.094Z,55.18
2018-03-08T05:09:35.196Z,55.18
2018-03-08T05:12:02.273Z,55.18
2018-03-08T05:14:30.109Z,55.17
2018-03-08T05:16:57.185Z,55.17
2018-03-08T05:19:24.299Z,55.19
2018-03-08T05:21:51.391Z,55.19
2018-03-08T05:24:18.488Z,55.17
2018-03-08T05:26:46.325Z,55.17
2018-03-08T05:29:13.419Z,55.17
2018-03-08T05:31:40.493Z,55.17
2018-03-08T05:34:08.339Z,55.18
2018-03-08T05:36:35.430Z,55.16
2018-03-08T05:39:03.277Z,55.18
2018-03-08T05:41:30.349Z,55.17
2018-03-08T05:43:57.422Z,55.17
2018-03-08T05:46:24.503Z,55.17
2018-03-08T05:48:51.592Z,55.18
2018-03-08T05:51:18.674Z,55.17
2018-03-08T05:53:45.767Z,55.18
2018-03-08T05:56:13.610Z,55.17
2018-03-08T05:58:40.696Z,55.18
2018-03-08T06:01:08.565Z,55.18
2018-03-08T06:03:35.650Z,55.19
2018-03-08T06:06:03.540Z,55.17
2018-03-08T06:08:31.396Z,55.17
2018-03-08T06:10:58.519Z,55.18
2018-03-08T06:13:25.618Z,55.17
2018-03-08T06:15:54.205Z,55.17
2018-03-08T06:18:21.277Z,55.19
2018-03-08T06:20:48.370Z,55.18
2018-03-08T06:23:15.451Z,55.18
2018-03-08T06:25:42.549Z,55.18
2018-03-08T06:28:09.648Z,55.17
2018-03-08T06:30:37.767Z,55.18
2018-03-08T06:33:04.973Z,55.16
2018-03-08T06:35:32.054Z,55.18
2018-03-08T06:37:59.911Z,55.18
2018-03-08T06:40:27.749Z,55.18
2018-03-08T06:42:54.829Z,55.18
2018-03-08T06:45:21.908Z,55.17
2018-03-08T06:47:49.754Z,55.17
2018-03-08T06:50:16.829Z,55.17
2018-03-08T06:52:43.928Z,55.14
2018-03-08T06:55:11.795Z,55.14
2018-03-08T06:57:39.667Z,55.21
2018-03-08T07:00:06.742Z,55.22
2018-03-08T07:02:34.632Z,55.22
2018-03-08T07:05:01.796Z,55.20
2018-03-08T07:07:28.853Z,55.18
2018-03-08T07:09:56.708Z,55.15
2018-03-08T07:12:23.785Z,55.16
2018-03-08T07:14:51.626Z,55.17
2018-03-08T07:17:18.720Z,55.18
2018-03-08T07:19:46.584Z,55.17
2018-03-08T07:22:13.663Z,55.17
2018-03-08T07:24:41.549Z,55.15
2018-03-08T07:27:08.649Z,55.14
2018-03-08T07:29:35.730Z,55.14
2018-03-08T07:32:02.838Z,55.14
2018-03-08T07:34:29.928Z,55.13
2018-03-08T07:36:57.024Z,55.14
2018-03-08T07:39:24.131Z,55.14
2018-03-08T07:41:51.223Z,55.14
2018-03-08T07:44:18.325Z,55.12
2018-03-08T07:46:46.181Z,55.11
2018-03-08T07:49:13.282Z,55.11
2018-03-08T07:51:40.382Z,55.12
2018-03-08T07:54:07.497Z,55.10
2018-03-08T07:56:35.353Z,55.09
2018-03-08T07:59:03.254Z,55.09
2018-03-08T08:01:31.116Z,55.10
2018-03-08T08:03:58.195Z,55.11
2018-03-08T08:06:26.058Z,55.11
2018-03-08T08:08:53.910Z,55.11
2018-03-08T08:11:20.982Z,55.10
2018-03-08T08:13:48.057Z,55.09
2018-03-08T08:16:15.916Z,55.13
2018-03-08T08:18:42.992Z,55.11
2018-03-08T08:21:10.099Z,55.11
2018-03-08T08:23:37.189Z,55.11
2018-03-08T08:26:04.290Z,55.12
2018-03-08T08:28:32.148Z,55.12
2018-03-08T08:30:59.236Z,55.09
2018-03-08T08:33:26.363Z,55.12
2018-03-08T08:35:53.461Z,55.11
2018-03-08T08:38:20.543Z,55.11
2018-03-08T08:40:47.618Z,55.11
2018-03-08T08:43:14.699Z,55.11
2018-03-08T08:45:41.824Z,55.11
2018-03-08T08:48:08.907Z,55.11
2018-03-08T08:50:36.009Z,55.11
2018-03-08T08:53:03.891Z,55.11
2018-03-08T08:55:31.738Z,55.12
2018-03-08T08:57:58.837Z,55.13
2018-03-08T09:00:26.699Z,55.12
2018-03-08T09:02:53.791Z,55.12
2018-03-08T09:05:20.866Z,55.12
2018-03-08T09:07:47.961Z,55.10
2018-03-08T09:10:15.051Z,55.11
2018-03-08T09:12:42.922Z,55.10
2018-03-08T09:15:10.045Z,55.10
2018-03-08T09:17:37.136Z,55.10
2018-03-08T09:20:04.227Z,55.11
2018-03-08T09:22:31.345Z,55.11
2018-03-08T09:24:58.422Z,55.10
2018-03-08T09:27:25.540Z,55.10
2018-03-08T09:29:52.626Z,55.12
2018-03-08T09:32:19.731Z,55.09
2018-03-08T09:34:47.575Z,55.07
2018-03-08T09:37:14.690Z,55.11
2018-03-08T09:39:41.839Z,55.09
2018-03-08T09:42:09.693Z,55.07
2018-03-08T09:44:36.774Z,55.09
2018-03-08T09:47:04.637Z,55.07
2018-03-08T09:49:32.509Z,55.10
2018-03-08T09:51:59.586Z,55.10
2018-03-08T09:54:27.451Z,55.10
2018-03-08T09:56:54.549Z,55.10
2018-03-08T09:59:21.661Z,55.10
2018-03-08T10:01:48.747Z,55.10
2018-03-08T10:04:16.595Z,55.08
2018-03-08T10:06:43.669Z,55.10
2018-03-08T10:09:10.762Z,55.10
2018-03-08T10:11:37.843Z,55.07
2018-03-08T10:14:04.936Z,55.07
2018-03-08T10:16:32.023Z,55.10
2018-03-08T10:18:59.103Z,55.10
2018-03-08T10:21:44.375Z,55.08
2018-03-08T10:23:54.096Z,55.10
2018-03-08T10:26:21.171Z,55.08
2018-03-08T10:28:48.297Z,55.11
2018-03-08T10:31:15.370Z,55.08
2018-03-08T10:33:42.445Z,55.10
2018-03-08T10:36:09.536Z,55.07
2018-03-08T10:38:37.381Z,55.08
2018-03-08T10:41:04.492Z,55.10
2018-03-08T10:43:31.588Z,55.10
2018-03-08T10:45:58.713Z,55.08
2018-03-08T10:48:25.808Z,55.08
2018-03-08T10:50:52.913Z,55.10
2018-03-08T10:53:19.985Z,55.08
2018-03-08T10:55:47.864Z,55.08
2018-03-08T10:58:15.720Z,55.09
2018-03-08T11:00:46.688Z,55.09
2018-03-08T11:03:14.542Z,55.10
2018-03-08T11:05:47.586Z,55.10
2018-03-08T11:08:14.668Z,55.09
2018-03-08T11:10:41.761Z,55.08
2018-03-08T11:13:08.851Z,55.11
2018-03-08T11:15:36.698Z,55.08
2018-03-08T11:18:03.778Z,55.11
2018-03-08T11:20:30.894Z,55.11
2018-03-08T11:22:57.980Z,55.10
2018-03-08T11:25:25.079Z,55.08
2018-03-08T11:27:52.935Z,55.08
2018-03-08T11:30:20.014Z,55.11
2018-03-08T11:32:47.854Z,55.10
2018-03-08T11:35:14.934Z,55.11
2018-03-08T11:37:42.040Z,55.10
2018-03-08T11:40:09.117Z,55.09
2018-03-08T11:42:36.217Z,55.09
2018-03-08T11:45:04.810Z,55.08
2018-03-08T11:47:31.905Z,55.08
2018-03-08T11:49:59.768Z,55.10
2018-03-08T11:52:26.865Z,55.07
2018-03-08T11:54:54.019Z,55.08
2018-03-08T11:57:21.059Z,55.09
2018-03-08T11:59:48.911Z,55.09
2018-03-08T12:02:16.000Z,55.08
2018-03-08T12:04:43.859Z,55.08
2018-03-08T12:07:10.970Z,55.08
2018-03-08T12:09:38.072Z,55.07
2018-03-08T12:12:05.980Z,55.11
2018-03-08T12:14:33.830Z,55.09
2018-03-08T12:17:00.969Z,55.08
2018-03-08T12:19:28.009Z,55.07
2018-03-08T12:21:55.086Z,55.09
2018-03-08T12:24:22.184Z,55.09
2018-03-08T12:26:49.273Z,55.06
2018-03-08T12:29:17.132Z,55.07
2018-03-08T12:31:44.223Z,55.08
2018-03-08T12:34:11.364Z,55.09
2018-03-08T12:36:39.210Z,55.08
2018-03-08T12:39:06.293Z,55.08
2018-03-08T12:41:34.139Z,55.07
2018-03-08T12:44:01.218Z,55.08
2018-03-08T12:46:28.365Z,55.07
2018-03-08T12:48:55.426Z,55.09
2018-03-08T12:51:22.520Z,55.09
2018-03-08T12:53:50.382Z,55.11
2018-03-08T12:56:17.457Z,55.09
2018-03-08T12:58:44.577Z,55.09
2018-03-08T13:01:11.670Z,55.10
2018-03-08T13:03:38.788Z,55.11
2018-03-08T13:06:05.880Z,55.12
2018-03-08T13:08:32.994Z,55.12
2018-03-08T13:11:00.087Z,55.12
2018-03-08T13:13:27.179Z,55.13
2018-03-08T13:15:54.258Z,55.15
2018-03-08T13:18:22.115Z,55.13
2018-03-08T13:20:49.190Z,55.13
2018-03-08T13:23:17.053Z,55.15
2018-03-08T13:25:44.168Z,55.15
2018-03-08T13:28:11.272Z,55.14
2018-03-08T13:30:38.345Z,55.16
2018-03-08T13:33:06.190Z,55.17
2018-03-08T13:35:33.272Z,55.17
2018-03-08T13:38:00.372Z,55.18
2018-03-08T13:40:27.473Z,55.17
2018-03-08T13:42:54.573Z,55.17
2018-03-08T13:45:22.446Z,55.19
2018-03-08T13:47:49.540Z,55.18
2018-03-08T13:50:16.646Z,55.18
2018-03-08T13:52:43.740Z,55.19
2018-03-08T13:55:11.633Z,55.19
2018-03-08T13:57:38.729Z,55.19
2018-03-08T14:00:05.847Z,55.19
2018-03-08T14:02:33.703Z,55.19
2018-03-08T14:05:00.778Z,55.19
2018-03-08T14:07:28.639Z,55.49
2018-03-08T14:11:08.130Z,55.53
2018-03-08T14:13:35.978Z,55.53
2018-03-08T14:16:03.072Z,55.82
2018-03-08T14:18:31.161Z,55.73
2018-03-08T14:20:58.304Z,55.74
2018-03-08T14:23:25.397Z,55.68
2018-03-08T14:25:52.957Z,55.67
2018-03-08T14:28:20.525Z,55.63
2018-03-08T14:30:48.575Z,55.66
2018-03-08T14:33:16.182Z,55.59
2018-03-08T14:35:43.757Z,55.61
2018-03-08T14:38:11.433Z,55.60
2018-03-08T14:40:38.980Z,55.59
2018-03-08T14:43:07.215Z,55.58
2018-03-08T14:45:34.661Z,55.59
2018-03-08T14:48:02.240Z,55.59
2018-03-08T14:50:29.905Z,55.59
2018-03-08T14:52:57.580Z,55.54
2018-03-08T14:55:25.262Z,55.55
2018-03-08T14:57:52.829Z,55.53
2018-03-08T15:00:20.906Z,55.53
2018-03-08T15:02:49.304Z,55.53
2018-03-08T15:05:16.880Z,55.53
2018-03-08T15:07:44.345Z,55.53
2018-03-08T15:10:12.024Z,55.53
2018-03-08T15:12:39.631Z,55.52
2018-03-08T15:15:08.020Z,55.51
2018-03-08T15:17:35.659Z,55.52
2018-03-08T15:20:03.216Z,55.50
2018-03-08T15:22:30.908Z,55.52
2018-03-08T15:24:58.496Z,55.49
2018-03-08T15:27:25.982Z,55.51
2018-03-08T15:29:53.625Z,55.49
2018-03-08T15:32:21.322Z,55.50
2018-03-08T15:34:48.870Z,55.50
2018-03-08T15:37:16.338Z,55.49
2018-03-08T15:39:43.617Z,55.50
2018-03-08T15:42:10.758Z,55.49
2018-03-08T15:44:37.850Z,55.49
2018-03-08T15:47:05.295Z,55.46
2018-03-08T15:49:32.390Z,55.80
2018-03-08T15:51:59.465Z,56.00
2018-03-08T15:54:26.555Z,55.89
2018-03-08T15:56:53.639Z,56.10
2018-03-08T15:59:20.800Z,56.20
2018-03-08T16:01:47.899Z,56.24
2018-03-08T16:04:15.011Z,56.29
2018-03-08T16:06:43.928Z,56.20
2018-03-08T16:09:11.303Z,56.12
2018-03-08T16:11:38.663Z,56.11
2018-03-08T16:14:06.027Z,56.10
2018-03-08T16:16:33.294Z,56.10
2018-03-08T16:19:00.399Z,56.08
2018-03-08T16:21:27.523Z,56.04
2018-03-08T16:23:54.605Z,56.01
2018-03-08T16:26:21.682Z,56.02
2018-03-08T16:28:48.809Z,56.02
2018-03-08T16:31:15.903Z,56.01
2018-03-08T16:33:42.991Z,55.99
2018-03-08T16:36:10.089Z,55.95
2018-03-08T16:38:37.554Z,55.95
2018-03-08T16:41:04.644Z,55.94
2018-03-08T16:43:31.728Z,55.92
2018-03-08T16:45:58.821Z,55.92
2018-03-08T16:48:26.679Z,55.92
2018-03-08T16:50:53.804Z,55.92
2018-03-08T16:53:20.901Z,55.91
2018-03-08T16:55:48.209Z,55.88
2018-03-08T16:58:15.335Z,55.86
2018-03-08T17:00:42.448Z,55.87
2018-03-08T17:03:09.532Z,55.88
2018-03-08T17:05:36.640Z,55.85
2018-03-08T17:08:03.745Z,55.84
2018-03-08T17:10:30.835Z,55.86
2018-03-08T17:12:57.910Z,55.84
2018-03-08T17:15:25.754Z,55.83
2018-03-08T17:17:52.835Z,55.83
2018-03-08T17:20:19.934Z,55.83
2018-03-08T17:22:47.026Z,55.80
2018-03-08T17:25:14.116Z,55.81
2018-03-08T17:27:41.245Z,55.83
2018-03-08T17:30:08.341Z,55.81
2018-03-08T17:32:35.464Z,55.80
2018-03-08T17:35:02.559Z,55.80
2018-03-08T17:37:30.402Z,55.78
2018-03-08T17:39:57.533Z,55.78
2018-03-08T17:42:25.382Z,55.77
2018-03-08T17:44:52.481Z,55.78
2018-03-08T17:47:19.567Z,55.77
2018-03-08T17:49:46.671Z,55.76
2018-03-08T17:52:13.774Z,55.77
2018-03-08T17:54:40.868Z,55.77
2018-03-08T17:57:08.192Z,55.76
2018-03-08T17:59:35.320Z,55.76
2018-03-08T18:02:02.508Z,55.75
2018-03-08T18:04:29.647Z,55.75
2018-03-08T18:06:57.507Z,55.74
2018-03-08T18:09:24.626Z,55.74
2018-03-08T18:11:51.803Z,55.72
2018-03-08T18:14:18.904Z,55.73
2018-03-08T18:16:45.998Z,55.72
2018-03-08T18:19:13.289Z,55.70
2018-03-08T18:21:40.380Z,55.71
2018-03-08T18:24:08.357Z,55.70
2018-03-08T18:26:36.452Z,55.71
2018-03-08T18:29:04.985Z,55.69
2018-03-08T18:31:32.246Z,55.68
2018-03-08T18:33:59.426Z,55.67
2018-03-08T18:36:27.371Z,55.67
2018-03-08T18:38:55.222Z,55.67
2018-03-08T18:41:22.563Z,55.67
2018-03-08T18:43:49.803Z,55.67
2018-03-08T18:46:17.167Z,55.66
2018-03-08T18:48:44.276Z,55.67
2018-03-08T18:51:11.493Z,55.66
2018-03-08T18:53:38.614Z,55.67
2018-03-08T18:56:05.870Z,55.67
2018-03-08T18:58:32.965Z,55.65
2018-03-08T19:01:01.165Z,55.65
2018-03-08T19:03:28.299Z,55.65
2018-03-08T19:05:55.475Z,55.65
2018-03-08T19:08:22.621Z,55.65
2018-03-08T19:10:50.921Z,55.65
2018-03-08T19:13:18.135Z,55.66
2018-03-08T19:15:45.222Z,55.65
2018-03-08T19:18:12.639Z,55.65
2018-03-08T19:20:39.904Z,55.65
2018-03-08T19:23:07.272Z,55.65
2018-03-08T19:25:34.379Z,55.65
2018-03-08T19:28:01.755Z,55.66
2018-03-08T19:30:29.984Z,55.66
2018-03-08T19:32:57.354Z,55.66
2018-03-08T19:35:25.501Z,55.65
2018-03-08T19:37:53.216Z,55.65
2018-03-08T19:40:20.476Z,55.65
2018-03-08T19:42:48.633Z,55.66
2018-03-08T19:45:15.974Z,55.66
2018-03-08T19:47:44.388Z,55.65
2018-03-08T19:50:12.715Z,55.65
2018-03-08T19:52:41.177Z,55.67
2018-03-08T19:55:08.960Z,55.66
2018-03-08T19:57:37.353Z,55.64
2018-03-08T20:00:05.562Z,55.66
2018-03-08T20:02:33.382Z,55.69
2018-03-08T20:05:03.266Z,55.69
2018-03-08T20:08:19.458Z,55.79
2018-03-08T20:10:47.725Z,55.90
2018-03-08T20:13:15.958Z,55.98
2018-03-08T20:15:43.480Z,56.07
2018-03-08T20:18:11.882Z,56.10
2018-03-08T20:20:39.288Z,56.10
2018-03-08T20:23:06.451Z,56.08
2018-03-08T20:25:34.550Z,56.06
2018-03-08T20:28:02.142Z,56.05
2018-03-08T20:30:29.580Z,56.06
2018-03-08T20:32:57.042Z,56.05
2018-03-08T20:35:25.339Z,56.04
2018-03-08T20:37:53.549Z,56.07
2018-03-08T20:40:21.452Z,56.05
2018-03-08T20:42:59.321Z,56.09
2018-03-08T20:45:26.685Z,56.09
2018-03-08T20:47:53.949Z,56.08
2018-03-08T20:50:21.933Z,56.07
2018-03-08T20:52:50.244Z,56.06
2018-03-08T20:55:18.636Z,56.05
2018-03-08T20:57:46.778Z,56.05
2018-03-08T21:00:14.972Z,56.02
2018-03-08T21:02:42.936Z,56.02
2018-03-08T21:05:10.829Z,56.02
2018-03-08T21:07:38.695Z,56.02
2018-03-08T21:10:06.551Z,56.01
2018-03-08T21:12:33.646Z,55.97
2018-03-08T21:15:01.749Z,56.02
2018-03-08T21:17:28.863Z,56.00
2018-03-08T21:19:55.990Z,56.00
2018-03-08T21:22:23.087Z,55.99
2018-03-08T21:24:50.416Z,55.99
2018-03-08T21:27:17.498Z,55.99
2018-03-08T21:29:44.584Z,55.97
2018-03-08T21:32:11.684Z,55.97
2018-03-08T21:34:38.781Z,55.96
2018-03-08T21:37:05.873Z,55.95
2018-03-08T21:39:32.955Z,55.94
2018-03-08T21:42:00.816Z,55.93
2018-03-08T21:44:27.920Z,55.93
2018-03-08T21:46:55.007Z,55.95
2018-03-08T21:49:22.111Z,55.94
2018-03-08T21:51:49.973Z,55.92
2018-03-08T21:54:17.069Z,55.91
2018-03-08T21:56:44.164Z,55.91
2018-03-08T21:59:11.341Z,55.92
2018-03-08T22:01:39.436Z,55.91
2018-03-08T22:04:07.335Z,55.91
2018-03-08T22:06:35.233Z,55.91
2018-03-08T22:09:02.318Z,55.91
2018-03-08T22:11:29.421Z,55.89
2018-03-08T22:13:56.502Z,55.90
2018-03-08T22:16:24.364Z,55.89
2018-03-08T22:18:51.477Z,55.89
2018-03-08T22:21:18.585Z,55.89
2018-03-08T22:23:45.682Z,55.89
2018-03-08T22:26:12.776Z,55.87
2018-03-08T22:28:39.878Z,55.87
2018-03-08T22:31:08.732Z,55.86
2018-03-08T22:33:35.890Z,55.88
2018-03-08T22:36:03.139Z,55.87
2018-03-08T22:38:30.228Z,55.86
2018-03-08T22:40:57.380Z,55.87
2018-03-08T22:43:24.475Z,55.85
2018-03-08T22:45:51.569Z,55.85
2018-03-08T22:48:19.449Z,55.85
2018-03-08T22:50:47.295Z,55.84
2018-03-08T22:53:14.402Z,55.85
2018-03-08T22:55:41.550Z,55.85
2018-03-08T22:58:09.435Z,55.87
2018-03-08T23:00:36.518Z,55.85
2018-03-08T23:03:09.300Z,55.85
2018-03-08T23:05:36.404Z,55.85
2018-03-08T23:08:03.481Z,55.85
2018-03-08T23:10:30.603Z,55.85
2018-03-08T23:12:57.699Z,55.83
2018-03-08T23:15:24.778Z,55.87
2018-03-08T23:17:53.148Z,55.89
2018-03-08T23:20:20.288Z,55.87
2018-03-08T23:22:47.507Z,55.85
2018-03-08T23:25:15.802Z,55.85
2018-03-08T23:27:44.095Z,55.85
2018-03-08T23:30:12.344Z,55.85
2018-03-08T23:32:39.647Z,55.83
2018-03-08T23:35:07.628Z,55.82
2018-03-08T23:37:35.609Z,55.82
2018-03-08T23:40:04.194Z,55.80
2018-03-08T23:42:32.106Z,55.80
2018-03-08T23:44:59.961Z,55.79
2018-03-08T23:47:27.188Z,55.79
2018-03-08T23:49:55.146Z,55.78
2018-03-08T23:52:22.358Z,55.78
2018-03-08T23:54:52.404Z,55.78
2018-03-08T23:57:20.590Z,55.77
2018-03-08T23:59:47.729Z,55.77
